createdAt,value
2022-08-10T00:04:24.556Z,13.33
2022-08-10T00:09:26.661Z,13.28
2022-08-10T00:14:28.781Z,13.26
2022-08-10T00:20:02.623Z,13.24
2022-08-10T00:24:53.936Z,13.20
2022-08-10T00:29:56.411Z,13.14
2022-08-10T00:34:58.343Z,13.06
2022-08-10T00:40:00.572Z,12.99
2022-08-10T00:45:03.085Z,12.91
2022-08-10T00:50:07.544Z,12.83
2022-08-10T00:55:12.472Z,12.76
2022-08-10T01:00:15.172Z,12.72
2022-08-10T01:05:24.010Z,12.71
2022-08-10T01:10:49.274Z,12.72
2022-08-10T01:16:27.666Z,12.71
2022-08-10T01:21:57.246Z,12.66
2022-08-10T01:27:27.043Z,12.59
2022-08-10T01:32:38.637Z,12.51
2022-08-10T01:37:51.999Z,12.45
2022-08-10T01:42:59.837Z,12.42
2022-08-10T01:48:28.515Z,12.43
2022-08-10T01:53:40.179Z,12.43
2022-08-10T01:58:45.477Z,12.36
2022-08-10T02:04:05.166Z,12.31
2022-08-10T02:09:12.227Z,12.25
2022-08-10T02:14:15.259Z,12.22
2022-08-10T02:19:29.332Z,12.17
2022-08-10T02:24:41.031Z,12.13
2022-08-10T02:29:44.892Z,12.11
2022-08-10T02:34:52.030Z,12.13
2022-08-10T02:39:54.653Z,12.13
2022-08-10T02:45:29.727Z,12.13
2022-08-10T02:50:38.300Z,12.12
2022-08-10T02:55:46.345Z,12.06
2022-08-10T03:00:53.506Z,11.96
2022-08-10T03:06:10.812Z,11.95
2022-08-10T03:12:35.228Z,11.92
2022-08-10T03:16:43.355Z,11.86
2022-08-10T03:21:50.197Z,11.83
2022-08-10T03:26:54.266Z,11.76
2022-08-10T03:31:58.490Z,11.66
2022-08-10T03:37:00.747Z,11.60
2022-08-10T03:42:06.124Z,11.56
2022-08-10T03:47:16.178Z,11.64
2022-08-10T03:52:20.143Z,12.01
2022-08-10T03:57:22.555Z,12.51
2022-08-10T04:02:46.987Z,13.08
2022-08-10T04:07:50.146Z,13.76
2022-08-10T04:13:12.339Z,14.33
2022-08-10T04:18:20.803Z,14.90
2022-08-10T04:23:25.733Z,15.15
2022-08-10T04:28:28.668Z,15.31
2022-08-10T04:33:33.179Z,15.44
2022-08-10T04:38:37.257Z,15.86
2022-08-10T04:43:39.674Z,16.40
2022-08-10T04:48:59.677Z,16.93
2022-08-10T04:54:07.121Z,17.34
2022-08-10T04:59:12.248Z,17.87
2022-08-10T05:04:35.743Z,18.38
2022-08-10T05:10:04.510Z,18.69
2022-08-10T05:15:13.486Z,19.03
2022-08-10T05:20:17.664Z,19.42
2022-08-10T05:25:20.282Z,19.73
2022-08-10T05:30:23.261Z,19.62
2022-08-10T05:35:26.285Z,19.52
2022-08-10T05:40:28.777Z,19.36
2022-08-10T05:45:30.801Z,19.33
2022-08-10T05:50:34.797Z,19.48
2022-08-10T05:55:37.045Z,19.75
2022-08-10T06:00:57.729Z,19.81
2022-08-10T06:06:02.401Z,20.12
2022-08-10T06:12:27.530Z,20.35
2022-08-10T06:16:30.003Z,20.56
2022-08-10T06:21:41.216Z,20.76
2022-08-10T06:27:02.555Z,20.92
2022-08-10T06:32:06.930Z,21.03
2022-08-10T06:37:10.920Z,21.03
2022-08-10T06:42:34.206Z,20.88
2022-08-10T06:48:00.510Z,20.90
2022-08-10T06:53:03.867Z,20.94
2022-08-10T06:58:07.268Z,21.10
2022-08-10T07:03:18.379Z,21.40
2022-08-10T07:08:23.483Z,21.63
2022-08-10T07:14:16.287Z,21.83
2022-08-10T07:18:49.692Z,22.23
2022-08-10T07:23:59.567Z,22.93
2022-08-10T07:29:03.762Z,23.35
2022-08-10T07:34:07.378Z,23.66
2022-08-10T07:39:12.860Z,23.77
2022-08-10T07:44:16.451Z,23.96
2022-08-10T07:49:23.897Z,24.15
2022-08-10T07:54:29.369Z,24.75
2022-08-10T07:59:45.166Z,25.01
2022-08-10T08:04:48.677Z,25.26
2022-08-10T08:09:57.587Z,25.43
2022-08-10T08:16:14.550Z,25.44
2022-08-10T08:20:26.780Z,25.57
2022-08-10T08:25:35.512Z,25.87
2022-08-10T08:30:41.898Z,25.91
2022-08-10T08:35:49.234Z,25.59
2022-08-10T08:41:01.271Z,26.10
2022-08-10T08:46:34.824Z,26.51
2022-08-10T08:52:06.218Z,26.67
2022-08-10T08:57:22.952Z,26.69
2022-08-10T09:03:02.118Z,26.85
2022-08-10T09:08:27.406Z,27.10
2022-08-10T09:13:41.724Z,27.22
2022-08-10T09:19:19.645Z,27.64
2022-08-10T09:25:08.971Z,27.80
2022-08-10T09:30:13.488Z,28.29
2022-08-10T09:36:26.579Z,28.16
2022-08-10T09:41:13.172Z,27.58
2022-08-10T09:46:33.363Z,26.69
2022-08-10T09:51:51.813Z,26.96
2022-08-10T09:57:44.166Z,27.55
2022-08-10T10:03:12.656Z,28.54
2022-08-10T10:08:42.224Z,29.32
2022-08-10T10:14:01.793Z,29.30
2022-08-10T10:19:30.275Z,29.31
2022-08-10T10:24:50.913Z,28.99
2022-08-10T10:30:06.569Z,28.95
2022-08-10T10:35:35.617Z,29.40
2022-08-10T10:40:55.218Z,29.22
2022-08-10T10:46:02.835Z,29.19
2022-08-10T10:51:42.392Z,28.85
2022-08-10T10:57:19.721Z,28.79
2022-08-10T11:02:57.384Z,29.30
2022-08-10T11:08:29.045Z,29.67
2022-08-10T11:14:27.365Z,29.17
2022-08-10T11:19:23.645Z,27.74
2022-08-10T11:24:50.658Z,28.39
2022-08-10T11:30:06.456Z,29.51
2022-08-10T11:35:23.808Z,28.92
2022-08-10T11:40:43.825Z,28.02
2022-08-10T11:45:55.576Z,28.81
2022-08-10T11:51:09.943Z,29.61
2022-08-10T11:56:27.905Z,29.43
2022-08-10T12:01:34.414Z,29.34
2022-08-10T12:06:54.796Z,29.76
2022-08-10T12:12:00.508Z,31.41
2022-08-10T12:17:07.639Z,31.98
2022-08-10T12:22:14.732Z,31.38
2022-08-10T12:27:21.364Z,30.28
2022-08-10T12:32:32.676Z,31.02
2022-08-10T12:37:53.367Z,30.89
2022-08-10T12:44:07.586Z,30.04
2022-08-10T12:49:22.783Z,28.24
2022-08-10T12:54:31.963Z,26.82
2022-08-10T12:59:43.212Z,27.39
2022-08-10T13:04:50.829Z,29.39
2022-08-10T13:09:55.683Z,31.06
2022-08-10T13:15:47.748Z,31.58
2022-08-10T13:20:34.379Z,29.67
2022-08-10T13:25:40.513Z,27.58
2022-08-10T13:30:50.631Z,26.81
2022-08-10T13:35:58.236Z,26.42
2022-08-10T13:41:25.505Z,27.17
2022-08-10T13:46:30.948Z,28.58
2022-08-10T13:51:56.473Z,30.45
2022-08-10T13:57:20.397Z,31.55
2022-08-10T14:02:48.379Z,32.21
2022-08-10T14:08:00.541Z,32.34
2022-08-10T14:13:05.415Z,31.93
2022-08-10T14:18:09.532Z,30.05
2022-08-10T14:23:13.504Z,28.85
2022-08-10T14:28:17.871Z,29.05
2022-08-10T14:33:23.521Z,30.27
2022-08-10T14:38:29.040Z,30.83
2022-08-10T14:43:42.561Z,30.68
2022-08-10T14:48:50.762Z,30.81
2022-08-10T14:53:58.676Z,31.79
2022-08-10T14:59:06.762Z,32.17
2022-08-10T15:04:13.318Z,30.50
2022-08-10T15:09:19.199Z,29.25
2022-08-10T15:14:43.071Z,29.30
2022-08-10T15:20:02.863Z,29.30
2022-08-10T15:25:19.007Z,29.97
2022-08-10T15:30:32.002Z,30.99
2022-08-10T15:35:53.510Z,31.15
2022-08-10T15:40:57.127Z,30.47
2022-08-10T15:46:20.483Z,30.32
2022-08-10T15:51:33.746Z,30.57
2022-08-10T15:57:10.954Z,31.52
2022-08-10T16:02:17.753Z,30.94
2022-08-10T16:07:46.213Z,29.77
2022-08-10T16:13:00.032Z,29.12
2022-08-10T16:18:13.451Z,28.69
2022-08-10T16:23:19.953Z,28.76
2022-08-10T16:28:30.363Z,28.84
2022-08-10T16:33:53.549Z,29.05
2022-08-10T16:38:58.877Z,29.31
2022-08-10T16:44:01.312Z,29.32
2022-08-10T16:49:03.526Z,28.70
2022-08-10T16:54:07.719Z,28.34
2022-08-10T16:59:10.734Z,28.34
2022-08-10T17:04:41.185Z,28.28
2022-08-10T17:09:49.640Z,28.09
2022-08-10T17:15:09.630Z,28.02
2022-08-10T17:20:31.909Z,27.60
2022-08-10T17:25:50.974Z,27.67
2022-08-10T17:30:58.121Z,27.34
2022-08-10T17:36:08.868Z,27.26
2022-08-10T17:41:13.753Z,26.66
2022-08-10T17:46:17.184Z,26.04
2022-08-10T17:51:19.389Z,25.57
2022-08-10T17:56:22.676Z,24.69
2022-08-10T18:01:41.775Z,23.94
2022-08-10T18:07:02.656Z,23.03
2022-08-10T18:12:18.483Z,22.35
2022-08-10T18:17:39.150Z,21.82
2022-08-10T18:22:48.099Z,21.35
2022-08-10T18:28:04.187Z,20.84
2022-08-10T18:33:10.771Z,20.40
2022-08-10T18:38:14.861Z,20.08
2022-08-10T18:44:06.956Z,19.88
2022-08-10T18:49:06.697Z,19.51
2022-08-10T18:54:39.778Z,19.22
2022-08-10T19:00:08.001Z,18.91
2022-08-10T19:05:31.359Z,18.65
2022-08-10T19:11:02.653Z,18.38
2022-08-10T19:16:07.397Z,18.12
2022-08-10T19:21:27.524Z,17.88
2022-08-10T19:26:45.800Z,17.64
2022-08-10T19:32:00.365Z,17.44
2022-08-10T19:37:20.954Z,17.22
2022-08-10T19:42:49.904Z,17.01
2022-08-10T19:48:00.754Z,16.82
2022-08-10T19:53:24.801Z,16.63
2022-08-10T19:58:47.923Z,16.47
2022-08-10T20:04:04.449Z,16.25
2022-08-10T20:09:36.030Z,16.11
2022-08-10T20:15:02.825Z,16.00
2022-08-10T20:20:31.016Z,15.88
2022-08-10T20:25:34.591Z,15.71
2022-08-10T20:30:41.894Z,15.47
2022-08-10T20:35:50.399Z,15.19
2022-08-10T20:41:19.660Z,14.96
2022-08-10T20:46:29.651Z,14.74
2022-08-10T20:51:59.510Z,14.62
2022-08-10T20:57:54.352Z,14.56
2022-08-10T21:03:06.677Z,14.49
2022-08-10T21:08:13.059Z,14.31
2022-08-10T21:13:33.185Z,14.20
2022-08-10T21:18:51.900Z,14.12
2022-08-10T21:24:24.054Z,14.08
2022-08-10T21:29:40.413Z,14.02
2022-08-10T21:35:20.122Z,14.04
2022-08-10T21:41:57.529Z,14.13
2022-08-10T21:47:41.929Z,14.15
2022-08-10T21:53:44.577Z,14.10
2022-08-10T21:59:20.937Z,14.01
2022-08-10T22:04:55.136Z,13.94
2022-08-10T22:10:17.643Z,13.90
2022-08-10T22:16:05.555Z,13.91
2022-08-10T22:21:49.742Z,13.91
2022-08-10T22:27:49.511Z,13.80
2022-08-10T22:33:29.224Z,13.68
2022-08-10T22:38:56.295Z,13.45
2022-08-10T22:44:21.302Z,13.21
2022-08-10T22:49:24.152Z,13.05
2022-08-10T22:54:56.872Z,12.96
2022-08-10T23:00:14.561Z,12.94
2022-08-10T23:05:18.741Z,12.72
2022-08-10T23:10:41.650Z,12.59
2022-08-10T23:16:14.722Z,12.45
2022-08-10T23:21:19.852Z,12.34
2022-08-10T23:26:27.224Z,12.30
2022-08-10T23:31:59.045Z,12.26
2022-08-10T23:36:56.361Z,12.30
2022-08-10T23:42:07.232Z,12.37
2022-08-10T23:47:13.139Z,12.48
2022-08-10T23:52:27.680Z,12.49
2022-08-10T23:57:32.651Z,12.42
